createdAt,value
2019-01-29T00:00:17.468Z,26.80
2019-01-29T00:01:17.460Z,24.40
2019-01-29T00:02:17.447Z,26.50
2019-01-29T00:03:17.468Z,26.60
2019-01-29T00:04:17.425Z,26.10
2019-01-29T00:05:17.416Z,27.20
2019-01-29T00:06:17.408Z,24.70
2019-01-29T00:07:17.393Z,24.20
2019-01-29T00:08:17.383Z,28.50
2019-01-29T00:09:17.379Z,23.80
2019-01-29T00:10:17.362Z,23.10
2019-01-29T00:11:17.351Z,25.20
2019-01-29T00:12:17.341Z,24.30
2019-01-29T00:13:17.330Z,25.80
2019-01-29T00:14:17.329Z,25.70
2019-01-29T00:15:17.324Z,25.00
2019-01-29T00:16:17.300Z,25.40
2019-01-29T00:17:17.289Z,24.20
2019-01-29T00:18:17.275Z,26.50
2019-01-29T00:19:17.265Z,22.70
2019-01-29T00:20:17.266Z,28.40
2019-01-29T00:21:17.247Z,25.40
2019-01-29T00:22:17.236Z,28.30
2019-01-29T00:23:17.227Z,28.00
2019-01-29T00:24:17.214Z,24.70
2019-01-29T00:25:17.207Z,27.10
2019-01-29T00:26:17.197Z,27.00
2019-01-29T00:27:17.182Z,28.40
2019-01-29T00:28:17.172Z,26.40
2019-01-29T00:29:17.167Z,25.10
2019-01-29T00:30:17.152Z,27.00
2019-01-29T00:31:17.143Z,27.10
2019-01-29T00:32:17.132Z,28.80
2019-01-29T00:33:17.119Z,26.40
2019-01-29T00:34:17.109Z,27.70
2019-01-29T00:35:17.099Z,25.60
2019-01-29T00:36:17.092Z,30.00
2019-01-29T00:37:17.077Z,31.60
2019-01-29T00:38:17.067Z,28.40
2019-01-29T00:39:17.057Z,29.70
2019-01-29T00:40:17.045Z,27.70
2019-01-29T00:41:17.030Z,27.20
2019-01-29T00:42:17.021Z,31.30
2019-01-29T00:43:17.013Z,29.20
2019-01-29T00:44:17.005Z,30.20
2019-01-29T00:45:16.990Z,26.80
2019-01-29T00:46:16.980Z,30.70
2019-01-29T00:47:16.968Z,32.50
2019-01-29T00:48:16.961Z,27.90
2019-01-29T00:49:16.947Z,27.90
2019-01-29T00:50:16.949Z,26.90
2019-01-29T00:51:16.931Z,24.20
2019-01-29T00:52:16.921Z,27.80
2019-01-29T00:53:16.911Z,25.80
2019-01-29T00:54:16.904Z,30.20
2019-01-29T00:55:16.887Z,28.00
2019-01-29T00:56:16.876Z,27.80
2019-01-29T00:57:16.867Z,26.70
2019-01-29T00:58:16.859Z,26.70
2019-01-29T00:59:16.853Z,27.30
2019-01-29T01:00:16.835Z,29.70
2019-01-29T01:01:16.824Z,30.10
2019-01-29T01:02:16.815Z,32.70
2019-01-29T01:03:16.803Z,30.00
2019-01-29T01:04:16.795Z,31.30
2019-01-29T01:05:16.785Z,32.90
2019-01-29T01:06:16.772Z,30.10
2019-01-29T01:07:16.762Z,33.80
2019-01-29T01:08:16.755Z,35.30
2019-01-29T01:09:16.745Z,34.50
2019-01-29T01:10:16.733Z,32.20
2019-01-29T01:11:16.720Z,29.40
2019-01-29T01:12:16.709Z,25.10
2019-01-29T01:13:16.696Z,31.70
2019-01-29T01:14:16.689Z,27.20
2019-01-29T01:15:16.676Z,24.70
2019-01-29T01:16:16.670Z,29.40
2019-01-29T01:17:16.657Z,25.30
2019-01-29T01:18:16.649Z,28.00
2019-01-29T01:19:16.637Z,26.90
2019-01-29T01:20:16.628Z,25.40
2019-01-29T01:21:16.616Z,23.70
2019-01-29T01:22:16.604Z,22.90
2019-01-29T01:23:16.594Z,20.90
2019-01-29T01:24:16.587Z,22.70
2019-01-29T01:25:16.656Z,21.80
2019-01-29T01:26:16.562Z,24.00
2019-01-29T01:27:16.550Z,17.10
2019-01-29T01:28:16.537Z,17.20
2019-01-29T01:29:16.537Z,17.60
2019-01-29T01:30:16.523Z,17.00
2019-01-29T01:31:16.510Z,14.70
2019-01-29T01:32:16.516Z,14.60
2019-01-29T01:33:16.486Z,13.70
2019-01-29T01:34:16.477Z,15.00
2019-01-29T01:35:16.466Z,14.10
2019-01-29T01:36:16.455Z,13.00
2019-01-29T01:37:16.446Z,14.20
2019-01-29T01:38:16.436Z,15.00
2019-01-29T01:39:16.424Z,14.50
2019-01-29T01:40:16.419Z,12.90
2019-01-29T01:41:16.406Z,13.70
2019-01-29T01:42:16.400Z,13.10
2019-01-29T01:43:16.383Z,13.90
2019-01-29T01:44:16.375Z,11.10
2019-01-29T01:45:16.360Z,11.50
2019-01-29T01:46:16.353Z,10.80
2019-01-29T01:47:16.344Z,9.70
2019-01-29T01:48:16.332Z,10.10
2019-01-29T01:49:16.321Z,9.60
2019-01-29T01:50:16.308Z,11.90
2019-01-29T01:51:16.300Z,10.90
2019-01-29T01:52:16.290Z,10.20
2019-01-29T01:53:16.279Z,10.80
2019-01-29T01:54:16.269Z,10.50
2019-01-29T01:55:16.254Z,11.60
2019-01-29T01:56:16.244Z,10.90
2019-01-29T01:57:16.236Z,9.90
2019-01-29T01:58:16.226Z,11.70
2019-01-29T01:59:16.212Z,11.70
2019-01-29T02:00:16.209Z,11.80
2019-01-29T02:01:16.193Z,12.40
2019-01-29T02:02:16.183Z,11.80
2019-01-29T02:03:16.173Z,14.10
2019-01-29T02:04:16.160Z,13.60
2019-01-29T02:05:16.150Z,13.30
2019-01-29T02:06:16.152Z,13.90
2019-01-29T02:07:16.134Z,14.20
2019-01-29T02:08:16.120Z,13.10
2019-01-29T02:09:16.108Z,14.50
2019-01-29T02:10:16.099Z,13.10
2019-01-29T02:11:16.086Z,12.60
2019-01-29T02:12:16.074Z,14.50
2019-01-29T02:13:16.071Z,13.70
2019-01-29T02:14:16.056Z,14.60
2019-01-29T02:15:16.043Z,15.10
2019-01-29T02:16:16.038Z,16.00
2019-01-29T02:17:16.025Z,16.20
2019-01-29T02:18:16.012Z,16.40
2019-01-29T02:19:16.001Z,14.80
2019-01-29T02:20:15.998Z,13.60
2019-01-29T02:21:15.984Z,14.10
2019-01-29T02:22:15.970Z,14.80
2019-01-29T02:23:15.964Z,13.70
2019-01-29T02:24:15.949Z,13.30
2019-01-29T02:25:15.939Z,13.00
2019-01-29T02:26:15.979Z,15.40
2019-01-29T02:27:15.917Z,14.20
2019-01-29T02:28:15.909Z,13.90
2019-01-29T02:29:15.898Z,13.30
2019-01-29T02:30:15.897Z,13.60
2019-01-29T02:31:15.883Z,13.40
2019-01-29T02:32:15.869Z,12.50
2019-01-29T02:33:15.857Z,12.90
2019-01-29T02:34:15.846Z,12.70
2019-01-29T02:35:15.835Z,11.60
2019-01-29T02:36:15.826Z,11.50
2019-01-29T02:37:15.812Z,13.10
2019-01-29T02:38:15.808Z,11.10
2019-01-29T02:39:15.791Z,12.00
2019-01-29T02:40:15.779Z,12.50
2019-01-29T02:41:15.772Z,10.50
2019-01-29T02:42:15.761Z,11.20
2019-01-29T02:43:15.750Z,12.00
2019-01-29T02:44:15.738Z,10.60
2019-01-29T02:45:15.733Z,10.00
2019-01-29T02:46:15.719Z,10.10
2019-01-29T02:47:15.709Z,11.80
2019-01-29T02:48:15.697Z,8.60
2019-01-29T02:49:15.689Z,9.40
2019-01-29T02:50:15.677Z,9.10
2019-01-29T02:51:15.668Z,7.70
2019-01-29T02:52:15.654Z,9.50
2019-01-29T02:53:18.300Z,10.80
2019-01-29T02:54:15.632Z,8.10
2019-01-29T02:55:15.624Z,9.30
2019-01-29T02:56:15.613Z,9.80
2019-01-29T02:57:15.600Z,8.80
2019-01-29T02:58:15.589Z,9.60
2019-01-29T02:59:15.582Z,8.80
2019-01-29T03:00:15.569Z,7.70
2019-01-29T03:01:15.559Z,8.10
2019-01-29T03:02:15.553Z,8.00
2019-01-29T03:03:15.541Z,6.00
2019-01-29T03:04:15.533Z,7.90
2019-01-29T03:05:15.515Z,7.90
2019-01-29T03:06:15.507Z,8.60
2019-01-29T03:07:15.497Z,7.80
2019-01-29T03:08:15.489Z,8.70
2019-01-29T03:09:15.474Z,7.70
2019-01-29T03:10:15.469Z,8.10
2019-01-29T03:11:15.458Z,9.60
2019-01-29T03:12:15.443Z,7.40
2019-01-29T03:13:15.432Z,8.50
2019-01-29T03:14:15.422Z,8.00
2019-01-29T03:15:15.413Z,8.70
2019-01-29T03:16:15.402Z,10.10
2019-01-29T03:17:15.399Z,8.80
2019-01-29T03:18:15.523Z,8.70
2019-01-29T03:19:15.369Z,9.80
2019-01-29T03:20:15.400Z,8.30
2019-01-29T03:21:15.349Z,8.40
2019-01-29T03:22:15.335Z,8.50
2019-01-29T03:23:15.326Z,8.50
2019-01-29T03:24:15.321Z,8.70
2019-01-29T03:25:15.306Z,8.40
2019-01-29T03:26:15.296Z,8.50
2019-01-29T03:27:15.295Z,8.80
2019-01-29T03:28:15.275Z,8.80
2019-01-29T03:29:15.267Z,8.00
2019-01-29T03:30:15.260Z,9.40
2019-01-29T03:31:15.243Z,7.10
2019-01-29T03:32:15.245Z,7.60
2019-01-29T03:33:15.237Z,9.10
2019-01-29T03:34:15.211Z,8.70
2019-01-29T03:35:15.214Z,8.60
2019-01-29T03:36:15.194Z,9.10
2019-01-29T03:37:15.184Z,8.00
2019-01-29T03:38:15.178Z,11.00
2019-01-29T03:39:15.160Z,9.50
2019-01-29T03:40:15.166Z,9.60
2019-01-29T03:41:15.138Z,9.20
2019-01-29T03:42:15.131Z,10.60
2019-01-29T03:43:15.118Z,10.20
2019-01-29T03:44:15.113Z,9.60
2019-01-29T03:45:15.108Z,9.30
2019-01-29T03:46:15.085Z,10.40
2019-01-29T03:47:15.080Z,10.70
2019-01-29T03:48:15.065Z,11.60
2019-01-29T03:49:15.053Z,12.40
2019-01-29T03:50:15.045Z,12.70
2019-01-29T03:51:15.034Z,12.10
2019-01-29T03:52:15.026Z,10.00
2019-01-29T03:53:15.016Z,10.90
2019-01-29T03:54:15.006Z,11.90
2019-01-29T03:55:14.996Z,11.30
2019-01-29T03:56:14.987Z,12.60
2019-01-29T03:57:14.973Z,11.70
2019-01-29T03:58:14.958Z,11.40
2019-01-29T03:59:14.950Z,13.40
2019-01-29T04:00:14.941Z,12.40
2019-01-29T04:01:14.931Z,12.70
2019-01-29T04:02:14.916Z,12.10
2019-01-29T04:03:14.913Z,11.10
2019-01-29T04:04:14.895Z,12.40
2019-01-29T04:05:14.887Z,14.30
2019-01-29T04:06:14.874Z,13.90
2019-01-29T04:07:14.870Z,13.50
2019-01-29T04:08:14.859Z,12.00
2019-01-29T04:09:14.845Z,12.90
2019-01-29T04:10:15.852Z,12.60
2019-01-29T04:11:16.939Z,12.60
2019-01-29T04:12:14.815Z,13.50
2019-01-29T04:13:14.805Z,13.50
2019-01-29T04:14:14.794Z,13.20
2019-01-29T04:15:14.782Z,16.10
2019-01-29T04:16:14.775Z,13.40
2019-01-29T04:17:14.760Z,15.40
2019-01-29T04:18:14.750Z,14.50
2019-01-29T04:19:14.739Z,13.10
2019-01-29T04:20:14.731Z,14.50
2019-01-29T04:21:14.720Z,15.10
2019-01-29T04:22:14.706Z,15.40
2019-01-29T04:23:14.697Z,15.60
2019-01-29T04:24:14.693Z,16.00
2019-01-29T04:25:14.678Z,13.70
2019-01-29T04:26:14.666Z,14.50
2019-01-29T04:27:14.654Z,12.90
2019-01-29T04:28:14.646Z,14.40
2019-01-29T04:29:14.642Z,14.00
2019-01-29T04:30:14.627Z,15.10
2019-01-29T04:31:14.614Z,16.00
2019-01-29T04:32:14.605Z,12.90
2019-01-29T04:33:14.592Z,14.50
2019-01-29T04:34:14.584Z,15.10
2019-01-29T04:35:14.575Z,15.80
2019-01-29T04:36:14.581Z,15.20
2019-01-29T04:37:14.552Z,16.30
2019-01-29T04:38:14.539Z,15.60
2019-01-29T04:39:14.529Z,15.80
2019-01-29T04:40:14.576Z,15.50
2019-01-29T04:41:14.508Z,14.10
2019-01-29T04:42:14.498Z,16.30
2019-01-29T04:43:14.490Z,15.00
2019-01-29T04:44:14.479Z,16.60
2019-01-29T04:45:14.471Z,17.40
2019-01-29T04:46:14.454Z,16.50
2019-01-29T04:47:14.445Z,16.80
2019-01-29T04:48:14.436Z,16.70
2019-01-29T04:49:14.434Z,16.30
2019-01-29T04:50:14.414Z,16.10
2019-01-29T04:51:14.406Z,14.80
2019-01-29T04:52:14.393Z,15.60
2019-01-29T04:53:14.385Z,15.70
2019-01-29T04:54:14.374Z,16.50
2019-01-29T04:55:14.363Z,15.50
2019-01-29T04:56:14.352Z,17.80
2019-01-29T04:57:14.339Z,15.50
2019-01-29T04:58:14.328Z,14.90
2019-01-29T04:59:14.325Z,15.20
2019-01-29T05:00:14.309Z,14.90
2019-01-29T05:01:14.299Z,14.00
2019-01-29T05:02:14.287Z,14.50
2019-01-29T05:03:14.273Z,14.60
2019-01-29T05:04:14.267Z,16.10
2019-01-29T05:05:14.260Z,14.00
2019-01-29T05:06:14.246Z,13.10
2019-01-29T05:07:14.233Z,11.80
2019-01-29T05:08:14.231Z,12.00
2019-01-29T05:09:14.213Z,12.80
2019-01-29T05:10:14.254Z,13.00
2019-01-29T05:11:14.587Z,12.40
2019-01-29T05:12:14.176Z,13.70
2019-01-29T05:13:14.180Z,12.30
2019-01-29T05:14:14.161Z,12.80
2019-01-29T05:15:14.153Z,13.90
2019-01-29T05:16:14.140Z,11.90
2019-01-29T05:17:14.129Z,12.70
2019-01-29T05:18:14.118Z,12.60
2019-01-29T05:19:14.113Z,15.60
2019-01-29T05:20:14.100Z,14.60
2019-01-29T05:21:14.087Z,13.20
2019-01-29T05:22:14.078Z,15.50
2019-01-29T05:23:14.074Z,14.80
2019-01-29T05:24:14.064Z,11.60
2019-01-29T05:25:14.046Z,13.50
2019-01-29T05:26:14.049Z,13.40
2019-01-29T05:27:14.025Z,13.90
2019-01-29T05:28:14.023Z,13.70
2019-01-29T05:29:14.007Z,13.20
2019-01-29T05:30:13.996Z,14.40
2019-01-29T05:31:13.987Z,15.10
2019-01-29T05:32:13.974Z,15.60
2019-01-29T05:33:13.964Z,13.00
2019-01-29T05:34:13.957Z,13.50
2019-01-29T05:35:13.945Z,12.50
2019-01-29T05:36:13.933Z,13.50
2019-01-29T05:37:13.924Z,12.70
2019-01-29T05:38:13.912Z,10.20
2019-01-29T05:39:13.902Z,12.10
2019-01-29T05:40:13.892Z,11.40
2019-01-29T05:41:13.874Z,11.60
2019-01-29T05:42:13.913Z,11.50
2019-01-29T05:43:13.856Z,12.40
2019-01-29T05:44:13.850Z,12.70
2019-01-29T05:45:13.838Z,12.80
2019-01-29T05:46:13.833Z,11.10
2019-01-29T05:47:13.824Z,11.60
2019-01-29T05:48:13.805Z,13.40
2019-01-29T05:49:13.794Z,12.80
2019-01-29T05:50:13.788Z,10.40
2019-01-29T05:51:13.816Z,17.50
2019-01-29T05:52:13.767Z,13.60
2019-01-29T05:53:13.753Z,12.30
2019-01-29T05:54:16.469Z,11.70
2019-01-29T05:55:13.735Z,10.60
2019-01-29T05:56:13.720Z,10.70
2019-01-29T05:57:13.713Z,12.10
2019-01-29T05:58:13.702Z,12.70
2019-01-29T05:59:13.691Z,12.90
2019-01-29T06:00:13.689Z,12.40
2019-01-29T06:01:13.672Z,11.40
2019-01-29T06:02:13.661Z,12.30
2019-01-29T06:03:13.651Z,11.60
2019-01-29T06:04:13.637Z,11.30
2019-01-29T06:05:13.634Z,12.70
2019-01-29T06:06:13.621Z,12.20
2019-01-29T06:07:13.611Z,11.30
2019-01-29T06:08:13.603Z,11.50
2019-01-29T06:09:13.586Z,12.40
2019-01-29T06:10:13.578Z,11.90
2019-01-29T06:11:13.564Z,12.10
2019-01-29T06:12:13.555Z,9.90
2019-01-29T06:13:13.546Z,10.30
2019-01-29T06:14:13.537Z,13.90
2019-01-29T06:15:13.534Z,13.70
2019-01-29T06:16:13.525Z,13.00
2019-01-29T06:17:13.506Z,13.00
2019-01-29T06:18:13.505Z,13.20
2019-01-29T06:19:13.483Z,13.90
2019-01-29T06:20:13.474Z,14.80
2019-01-29T06:21:13.460Z,16.50
2019-01-29T06:22:13.453Z,13.80
2019-01-29T06:23:13.438Z,10.90
2019-01-29T06:24:13.427Z,12.60
2019-01-29T06:25:13.437Z,15.20
2019-01-29T06:26:13.411Z,12.10
2019-01-29T06:27:13.398Z,12.60
2019-01-29T06:28:13.380Z,11.00
2019-01-29T06:29:13.372Z,11.00
2019-01-29T06:30:13.359Z,10.60
2019-01-29T06:31:13.350Z,10.50
2019-01-29T06:32:13.338Z,10.50
2019-01-29T06:33:13.328Z,12.70
2019-01-29T06:34:13.318Z,22.60
2019-01-29T06:35:13.308Z,15.30
2019-01-29T06:36:13.303Z,15.50
2019-01-29T06:37:13.286Z,13.50
2019-01-29T06:38:13.277Z,15.80
2019-01-29T06:39:13.268Z,14.90
2019-01-29T06:40:13.254Z,11.90
2019-01-29T06:41:13.244Z,12.60
2019-01-29T06:42:13.234Z,11.70
2019-01-29T06:43:13.223Z,11.00
2019-01-29T06:44:13.212Z,15.00
2019-01-29T06:45:13.203Z,14.10
2019-01-29T06:46:13.195Z,13.70
2019-01-29T06:47:13.183Z,14.40
2019-01-29T06:48:13.170Z,15.40
2019-01-29T06:49:13.161Z,13.20
2019-01-29T06:50:13.149Z,15.30
2019-01-29T06:51:13.140Z,12.70
2019-01-29T06:52:13.130Z,19.40
2019-01-29T06:53:13.117Z,12.30
2019-01-29T06:54:13.109Z,13.30
2019-01-29T06:55:13.097Z,13.20
2019-01-29T06:56:13.088Z,14.20
2019-01-29T06:57:13.078Z,11.90
2019-01-29T06:58:13.069Z,11.80
2019-01-29T06:59:13.056Z,12.90
2019-01-29T07:00:13.046Z,10.20
2019-01-29T07:01:13.037Z,10.30
2019-01-29T07:02:13.026Z,9.10
2019-01-29T07:03:13.015Z,10.80
2019-01-29T07:04:13.006Z,11.10
2019-01-29T07:05:12.996Z,11.30
2019-01-29T07:06:12.982Z,11.50
2019-01-29T07:07:13.065Z,10.70
2019-01-29T07:08:13.323Z,11.60
2019-01-29T07:09:12.950Z,10.60
2019-01-29T07:10:12.940Z,11.50
2019-01-29T07:11:12.938Z,12.90
2019-01-29T07:12:12.919Z,12.50
2019-01-29T07:13:12.914Z,12.20
2019-01-29T07:14:12.899Z,12.60
2019-01-29T07:15:12.889Z,11.40
2019-01-29T07:16:12.879Z,12.20
2019-01-29T07:17:12.868Z,12.40
2019-01-29T07:18:12.863Z,10.50
2019-01-29T07:19:12.848Z,11.50
2019-01-29T07:20:12.840Z,9.30
2019-01-29T07:21:12.825Z,12.30
2019-01-29T07:22:12.815Z,13.50
2019-01-29T07:23:12.806Z,10.10
2019-01-29T07:24:12.792Z,10.50
2019-01-29T07:25:12.785Z,10.50
2019-01-29T07:26:12.942Z,10.00
2019-01-29T07:27:12.765Z,8.90
2019-01-29T07:28:13.482Z,9.50
2019-01-29T07:29:12.745Z,10.00
2019-01-29T07:30:12.731Z,9.70
2019-01-29T07:31:12.720Z,9.40
2019-01-29T07:32:12.712Z,11.80
2019-01-29T07:33:12.705Z,10.70
2019-01-29T07:34:12.689Z,9.20
2019-01-29T07:35:12.680Z,9.50
2019-01-29T07:36:12.668Z,11.30
2019-01-29T07:37:12.658Z,10.10
2019-01-29T07:38:12.647Z,11.30
2019-01-29T07:39:12.639Z,10.90
2019-01-29T07:40:12.645Z,12.80
2019-01-29T07:41:12.618Z,9.30
2019-01-29T07:42:12.605Z,11.60
2019-01-29T07:43:12.598Z,10.50
2019-01-29T07:44:12.585Z,11.50
2019-01-29T07:45:12.575Z,13.30
2019-01-29T07:46:12.566Z,12.50
2019-01-29T07:47:12.556Z,12.50
2019-01-29T07:48:12.546Z,11.90
2019-01-29T07:49:12.536Z,11.80
2019-01-29T07:50:12.524Z,12.90
2019-01-29T07:51:12.512Z,14.70
2019-01-29T07:52:12.915Z,12.80
2019-01-29T07:53:12.497Z,11.20
2019-01-29T07:54:12.479Z,14.00
2019-01-29T07:55:12.468Z,14.70
2019-01-29T07:56:12.459Z,11.50
2019-01-29T07:57:12.449Z,13.00
2019-01-29T07:58:12.437Z,12.90
2019-01-29T07:59:12.427Z,11.00
2019-01-29T08:00:12.419Z,12.80
2019-01-29T08:01:12.406Z,16.90
2019-01-29T08:02:12.396Z,14.40
2019-01-29T08:03:12.385Z,15.60
2019-01-29T08:04:12.381Z,13.60
2019-01-29T08:05:12.367Z,11.60
2019-01-29T08:06:12.353Z,12.50
2019-01-29T08:07:12.344Z,13.00
2019-01-29T08:08:12.331Z,10.30
2019-01-29T08:09:12.326Z,14.00
2019-01-29T08:10:12.311Z,15.00
2019-01-29T08:11:12.303Z,11.30
2019-01-29T08:12:12.293Z,10.90
2019-01-29T08:13:12.284Z,13.40
2019-01-29T08:14:12.269Z,11.90
2019-01-29T08:15:12.265Z,11.80
2019-01-29T08:16:12.248Z,11.10
2019-01-29T08:17:12.237Z,12.60
2019-01-29T08:18:12.228Z,11.80
2019-01-29T08:19:12.218Z,14.50
2019-01-29T08:20:12.206Z,11.70
2019-01-29T08:21:12.195Z,10.60
2019-01-29T08:22:12.186Z,10.70
2019-01-29T08:23:12.181Z,12.80
2019-01-29T08:24:12.165Z,9.80
2019-01-29T08:25:12.154Z,11.00
2019-01-29T08:26:12.144Z,12.60
2019-01-29T08:27:12.132Z,14.20
2019-01-29T08:28:12.121Z,10.30
2019-01-29T08:29:12.116Z,10.20
2019-01-29T08:30:12.111Z,12.50
2019-01-29T08:31:12.091Z,12.40
2019-01-29T08:32:12.082Z,13.40
2019-01-29T08:33:12.070Z,10.90
2019-01-29T08:34:12.058Z,12.90
2019-01-29T08:35:12.047Z,10.80
2019-01-29T08:36:12.038Z,11.90
2019-01-29T08:37:12.030Z,14.00
2019-01-29T08:38:12.017Z,13.20
2019-01-29T08:39:12.011Z,12.50
2019-01-29T08:40:11.995Z,12.60
2019-01-29T08:41:11.988Z,11.90
2019-01-29T08:42:11.975Z,12.20
2019-01-29T08:43:11.971Z,10.80
2019-01-29T08:44:11.953Z,15.40
2019-01-29T08:45:11.948Z,11.20
2019-01-29T08:46:11.932Z,13.90
2019-01-29T08:47:11.923Z,14.10
2019-01-29T08:48:11.911Z,13.60
2019-01-29T08:49:11.900Z,14.40
2019-01-29T08:50:11.891Z,12.00
2019-01-29T08:51:11.884Z,11.50
2019-01-29T08:52:11.872Z,12.60
2019-01-29T08:53:11.865Z,9.10
2019-01-29T08:54:11.850Z,11.00
2019-01-29T08:55:11.837Z,13.90
2019-01-29T08:56:11.825Z,15.10
2019-01-29T08:57:11.816Z,13.70
2019-01-29T08:58:11.809Z,11.60
2019-01-29T08:59:11.796Z,13.20
2019-01-29T09:00:11.813Z,13.30
2019-01-29T09:01:11.777Z,12.70
2019-01-29T09:02:11.763Z,9.80
2019-01-29T09:03:11.755Z,11.30
2019-01-29T09:04:11.743Z,11.70
2019-01-29T09:05:11.733Z,11.90
2019-01-29T09:06:11.721Z,13.20
2019-01-29T09:07:11.710Z,10.70
2019-01-29T09:08:13.080Z,11.50
2019-01-29T09:09:11.691Z,12.90
2019-01-29T09:10:11.680Z,13.30
2019-01-29T09:11:11.667Z,12.00
2019-01-29T09:12:11.658Z,11.80
2019-01-29T09:13:11.648Z,12.10
2019-01-29T09:14:11.643Z,10.80
2019-01-29T09:15:11.628Z,12.90
2019-01-29T09:16:11.617Z,11.80
2019-01-29T09:17:11.605Z,11.30
2019-01-29T09:18:11.599Z,11.10
2019-01-29T09:19:11.585Z,11.40
2019-01-29T09:20:11.573Z,12.30
2019-01-29T09:21:11.561Z,9.10
2019-01-29T09:22:11.553Z,11.50
2019-01-29T09:23:11.543Z,10.40
2019-01-29T09:24:11.532Z,11.30
2019-01-29T09:25:19.633Z,12.10
2019-01-29T09:26:12.507Z,10.70
2019-01-29T09:27:11.500Z,13.20
2019-01-29T09:28:11.489Z,13.80
2019-01-29T09:29:17.631Z,13.90
2019-01-29T09:30:12.466Z,10.40
2019-01-29T09:31:11.464Z,10.70
2019-01-29T09:32:11.449Z,16.60
2019-01-29T09:33:11.444Z,9.40
2019-01-29T09:34:11.429Z,11.40
2019-01-29T09:35:11.415Z,9.80
2019-01-29T09:36:11.435Z,11.40
2019-01-29T09:37:11.395Z,10.90
2019-01-29T09:38:11.387Z,10.40
2019-01-29T09:39:11.373Z,14.30
2019-01-29T09:40:11.363Z,12.70
2019-01-29T09:41:11.354Z,11.70
2019-01-29T09:42:11.378Z,11.40
2019-01-29T09:43:11.332Z,10.10
2019-01-29T09:44:11.331Z,12.60
2019-01-29T09:45:11.309Z,11.30
2019-01-29T09:46:11.300Z,12.20
2019-01-29T09:47:11.340Z,10.20
2019-01-29T09:48:11.277Z,13.20
2019-01-29T09:49:11.374Z,12.40
2019-01-29T09:50:11.269Z,11.30
2019-01-29T09:51:11.246Z,13.00
2019-01-29T09:52:11.238Z,13.40
2019-01-29T09:53:11.257Z,12.70
2019-01-29T09:54:11.218Z,10.90
2019-01-29T09:55:11.204Z,11.90
2019-01-29T09:56:11.240Z,12.30
2019-01-29T09:57:11.184Z,12.30
2019-01-29T09:58:11.173Z,12.60
2019-01-29T09:59:11.168Z,13.40
2019-01-29T10:00:11.150Z,12.70
2019-01-29T10:01:11.144Z,14.00
2019-01-29T10:02:11.131Z,11.90
2019-01-29T10:03:11.121Z,12.40
2019-01-29T10:04:11.110Z,14.70
2019-01-29T10:05:11.115Z,10.90
2019-01-29T10:06:11.105Z,12.80
2019-01-29T10:07:11.078Z,13.80
2019-01-29T10:08:11.069Z,10.80
2019-01-29T10:09:11.057Z,13.10
2019-01-29T10:10:11.047Z,12.70
2019-01-29T10:11:11.055Z,12.50
2019-01-29T10:12:11.026Z,11.00
2019-01-29T10:13:11.014Z,11.30
2019-01-29T10:14:11.003Z,11.10
2019-01-29T10:15:10.993Z,12.40
2019-01-29T10:16:10.983Z,11.20
2019-01-29T10:17:10.974Z,12.50
2019-01-29T10:18:10.963Z,10.90
2019-01-29T10:19:10.951Z,14.70
2019-01-29T10:20:10.942Z,10.80
2019-01-29T10:21:10.934Z,12.20
2019-01-29T10:22:10.920Z,14.00
2019-01-29T10:23:10.924Z,13.00
2019-01-29T10:24:10.898Z,15.00
2019-01-29T10:25:10.893Z,10.90
2019-01-29T10:26:10.882Z,10.80
2019-01-29T10:27:10.888Z,10.90
2019-01-29T10:28:10.857Z,11.40
2019-01-29T10:29:10.846Z,9.00
2019-01-29T10:30:10.836Z,11.90
2019-01-29T10:31:10.830Z,11.20
2019-01-29T10:32:10.816Z,11.00
2019-01-29T10:33:10.805Z,11.10
2019-01-29T10:34:10.793Z,10.70
2019-01-29T10:35:10.781Z,11.90
2019-01-29T10:36:10.771Z,8.60
2019-01-29T10:37:10.762Z,10.30
2019-01-29T10:38:10.751Z,12.30
2019-01-29T10:39:10.743Z,12.20
2019-01-29T10:40:10.730Z,9.70
2019-01-29T10:41:10.719Z,10.30
2019-01-29T10:42:10.708Z,10.00
2019-01-29T10:43:10.701Z,9.80
2019-01-29T10:44:10.688Z,10.90
2019-01-29T10:45:10.678Z,10.10
2019-01-29T10:46:10.666Z,10.10
2019-01-29T10:47:11.449Z,9.40
2019-01-29T10:48:10.651Z,8.50
2019-01-29T10:49:10.634Z,10.40
2019-01-29T10:50:10.648Z,7.60
2019-01-29T10:51:10.612Z,9.20
2019-01-29T10:52:10.607Z,9.10
2019-01-29T10:53:10.594Z,8.60
2019-01-29T10:54:10.580Z,11.00
2019-01-29T10:55:10.571Z,10.50
2019-01-29T10:56:10.562Z,8.90
2019-01-29T10:57:10.549Z,11.20
2019-01-29T10:58:10.538Z,9.80
2019-01-29T10:59:10.532Z,10.00
2019-01-29T11:00:12.168Z,10.50
2019-01-29T11:01:10.511Z,9.40
2019-01-29T11:02:10.498Z,10.00
2019-01-29T11:03:10.489Z,7.60
2019-01-29T11:04:10.476Z,8.10
2019-01-29T11:05:10.471Z,9.70
2019-01-29T11:06:10.468Z,7.40
2019-01-29T11:07:10.445Z,11.70
2019-01-29T11:08:10.434Z,8.40
2019-01-29T11:09:10.424Z,8.80
2019-01-29T11:10:10.414Z,10.30
2019-01-29T11:11:10.405Z,9.90
2019-01-29T11:12:10.416Z,9.40
2019-01-29T11:13:10.462Z,8.20
2019-01-29T11:14:10.370Z,8.60
2019-01-29T11:15:10.359Z,10.00
2019-01-29T11:16:10.350Z,12.70
2019-01-29T11:17:10.342Z,7.80
2019-01-29T11:18:10.334Z,8.30
2019-01-29T11:19:10.329Z,9.20
2019-01-29T11:20:10.308Z,10.20
2019-01-29T11:21:10.296Z,10.70
2019-01-29T11:22:10.287Z,12.70
2019-01-29T11:23:10.276Z,10.30
2019-01-29T11:24:10.264Z,10.80
2019-01-29T11:25:10.255Z,10.00
2019-01-29T11:26:10.243Z,9.90
2019-01-29T11:27:10.232Z,10.50
2019-01-29T11:28:10.222Z,9.80
2019-01-29T11:29:10.212Z,11.50
2019-01-29T11:30:10.201Z,9.60
2019-01-29T11:31:10.192Z,10.30
2019-01-29T11:32:10.179Z,10.90
2019-01-29T11:33:10.168Z,10.70
2019-01-29T11:34:10.157Z,12.10
2019-01-29T11:35:10.150Z,10.50
2019-01-29T11:36:10.142Z,11.80
2019-01-29T11:37:12.048Z,12.10
2019-01-29T11:38:10.120Z,12.20
2019-01-29T11:39:10.107Z,13.10
2019-01-29T11:40:10.096Z,12.70
2019-01-29T11:41:10.084Z,12.70
2019-01-29T11:42:10.076Z,13.00
2019-01-29T11:43:10.065Z,10.70
2019-01-29T11:44:10.054Z,15.40
2019-01-29T11:45:10.048Z,12.20
2019-01-29T11:46:10.032Z,12.30
2019-01-29T11:47:10.023Z,11.40
2019-01-29T11:48:10.010Z,11.90
2019-01-29T11:49:10.002Z,12.40
2019-01-29T11:50:09.989Z,12.40
2019-01-29T11:51:09.979Z,12.40
2019-01-29T11:52:11.194Z,10.70
2019-01-29T11:53:09.962Z,13.90
2019-01-29T11:54:09.949Z,10.40
2019-01-29T11:55:09.938Z,14.80
2019-01-29T11:56:09.959Z,14.30
2019-01-29T11:57:09.916Z,12.50
2019-01-29T11:58:09.908Z,12.10
2019-01-29T11:59:09.897Z,15.40
2019-01-29T12:00:09.891Z,15.60
2019-01-29T12:01:09.875Z,16.60
2019-01-29T12:02:09.863Z,15.20
2019-01-29T12:03:09.851Z,15.20
2019-01-29T12:04:09.845Z,14.20
2019-01-29T12:05:09.832Z,13.00
2019-01-29T12:06:09.823Z,14.30
2019-01-29T12:07:09.809Z,14.30
2019-01-29T12:08:09.808Z,11.70
2019-01-29T12:09:09.789Z,13.60
2019-01-29T12:10:09.780Z,12.70
2019-01-29T12:11:09.766Z,14.30
2019-01-29T12:12:09.760Z,12.90
2019-01-29T12:13:09.748Z,13.50
2019-01-29T12:14:09.739Z,14.50
2019-01-29T12:15:09.725Z,14.60
2019-01-29T12:16:09.714Z,15.00
2019-01-29T12:17:09.706Z,12.40
2019-01-29T12:18:09.699Z,13.90
2019-01-29T12:19:09.685Z,16.10
2019-01-29T12:20:09.674Z,13.80
2019-01-29T12:21:09.663Z,15.50
2019-01-29T12:22:09.651Z,11.30
2019-01-29T12:23:09.643Z,12.10
2019-01-29T12:24:11.253Z,13.50
2019-01-29T12:25:09.619Z,11.60
2019-01-29T12:26:13.318Z,10.90
2019-01-29T12:27:09.598Z,11.10
2019-01-29T12:28:09.588Z,11.00
2019-01-29T12:29:09.579Z,11.80
2019-01-29T12:30:09.567Z,8.40
2019-01-29T12:31:09.559Z,11.30
2019-01-29T12:32:09.547Z,10.70
2019-01-29T12:33:09.537Z,10.90
2019-01-29T12:34:09.525Z,11.50
2019-01-29T12:35:09.515Z,11.80
2019-01-29T12:36:09.506Z,11.20
2019-01-29T12:37:09.492Z,11.90
2019-01-29T12:38:09.484Z,10.80
2019-01-29T12:39:09.472Z,12.40
2019-01-29T12:40:09.462Z,13.50
2019-01-29T12:41:09.451Z,8.30
2019-01-29T12:42:09.441Z,11.30
2019-01-29T12:43:09.429Z,8.40
2019-01-29T12:44:09.421Z,11.10
2019-01-29T12:45:09.408Z,9.70
2019-01-29T12:46:09.399Z,9.70
2019-01-29T12:47:09.391Z,9.80
2019-01-29T12:48:09.377Z,9.20
2019-01-29T12:49:09.366Z,9.80
2019-01-29T12:50:09.356Z,9.50
2019-01-29T12:51:09.344Z,7.90
2019-01-29T12:52:09.337Z,10.40
2019-01-29T12:53:09.322Z,8.20
2019-01-29T12:54:09.312Z,9.60
2019-01-29T12:55:09.301Z,8.60
2019-01-29T12:56:09.291Z,9.30